Time;durP1;ratioP1;P1;durP2;ratioP2;P2;SDS_P1;SDS_P2;PMS_P1;PMS_P2;Temp;Humidity;BMP_temperature;BMP_pressure;BME280_temperature;BME280_humidity;BME280_pressure;Samples;Min_cycle;Max_cycle;Signal;HPM_P1;HPM_P2
2023/08/20 00:01:41;;;;;;;11.88;9.25;;;23.40;98.90;;;;;;4989207;28;20054;-78
2023/08/20 00:04:07;;;;;;;12.18;9.93;;;23.50;98.70;;;;;;5006217;28;20034;-77
2023/08/20 00:06:33;;;;;;;11.40;9.05;;;23.50;99.00;;;;;;4995127;28;20038;-77
2023/08/20 00:08:59;;;;;;;11.05;9.32;;;23.50;98.80;;;;;;5003903;28;20031;-76
2023/08/20 00:11:25;;;;;;;10.98;9.23;;;23.50;98.90;;;;;;5005847;28;20298;-76
2023/08/20 00:13:51;;;;;;;15.15;9.82;;;23.50;99.00;;;;;;4993978;28;20041;-76
2023/08/20 00:16:17;;;;;;;13.25;8.80;;;23.50;98.60;;;;;;4986349;28;20045;-78
2023/08/20 00:18:43;;;;;;;10.02;8.85;;;23.60;98.70;;;;;;4969631;28;20309;-78
2023/08/20 00:21:09;;;;;;;10.75;9.13;;;23.60;98.70;;;;;;4986337;28;20023;-78
2023/08/20 00:23:38;;;;;;;11.52;8.55;;;23.60;97.90;;;;;;4952805;28;20142;-77
2023/08/20 00:26:04;;;;;;;10.45;8.52;;;23.60;97.90;;;;;;4986365;28;20034;-76
2023/08/20 00:28:30;;;;;;;10.82;8.88;;;23.70;98.70;;;;;;4993214;28;20038;-79
2023/08/20 09:59:35;;;;;;;9.93;7.25;;;30.30;89.90;;;;;;5909776;23;20022;-73
2023/08/20 10:02:01;;;;;;;8.80;7.65;;;30.10;89.50;;;;;;5003625;28;20026;-76
2023/08/20 10:04:28;;;;;;;9.88;7.93;;;30.20;89.40;;;;;;4981501;28;20030;-76
2023/08/20 10:06:55;;;;;;;11.32;8.82;;;30.20;89.30;;;;;;4980637;28;20035;-75
2023/08/20 10:09:22;;;;;;;11.25;7.40;;;30.40;89.50;;;;;;4980483;28;20054;-75
2023/08/20 10:11:48;;;;;;;11.32;7.95;;;30.60;88.00;;;;;;4988111;28;20350;-75
2023/08/20 10:14:13;;;;;;;8.80;7.88;;;30.60;87.20;;;;;;4989445;28;20026;-74
2023/08/20 10:16:39;;;;;;;10.20;8.30;;;30.60;87.20;;;;;;4996721;28;20038;-76
2023/08/20 10:19:08;;;;;;;9.82;8.10;;;30.70;87.00;;;;;;4999615;28;20054;-74
2023/08/20 10:21:34;;;;;;;9.13;7.55;;;30.80;86.90;;;;;;5004011;28;20084;-75
2023/08/20 10:24:05;;;;;;;11.07;8.40;;;30.70;86.70;;;;;;4975985;28;20027;-75
2023/08/20 10:26:34;;;;;;;8.20;7.20;;;30.80;86.20;;;;;;4984406;28;20050;-74
2023/08/20 10:29:38;;;;;;;9.30;7.90;;;30.60;86.40;;;;;;4983744;28;20058;-74
2023/08/20 10:32:11;;;;;;;10.25;6.93;;;30.70;85.90;;;;;;4982096;28;20042;-73
2023/08/20 10:34:39;;;;;;;10.68;7.35;;;30.80;85.20;;;;;;4990036;28;20038;-73
2023/08/20 10:37:15;;;;;;;7.75;6.82;;;30.80;85.50;;;;;;4967862;28;20047;-74
2023/08/20 10:39:46;;;;;;;10.30;6.40;;;31.00;84.30;;;;;;4972932;28;20368;-74
2023/08/20 10:42:15;;;;;;;11.43;6.55;;;31.10;82.60;;;;;;4964869;29;20027;-73
2023/08/20 10:45:02;;;;;;;8.63;5.88;;;31.40;81.20;;;;;;4964700;29;20224;-73
2023/08/20 10:47:48;;;;;;;9.32;6.60;;;31.50;81.30;;;;;;4965048;29;20035;-72
2023/08/20 10:50:18;;;;;;;9.57;6.95;;;31.60;80.60;;;;;;4964617;29;20216;-73
2023/08/20 10:52:49;;;;;;;9.85;6.47;;;31.60;80.50;;;;;;4947451;29;20055;-73
2023/08/20 10:55:15;;;;;;;7.68;5.70;;;31.70;78.70;;;;;;4964492;29;20224;-72
2023/08/20 10:57:41;;;;;;;9.43;5.78;;;31.90;77.00;;;;;;4964823;29;20027;-74
2023/08/20 11:00:11;;;;;;;9.70;6.00;;;31.90;78.00;;;;;;4965979;28;20077;-74
2023/08/20 11:02:47;;;;;;;7.30;5.70;;;32.00;77.70;;;;;;4984053;28;20065;-76
2023/08/20 11:05:23;;;;;;;11.63;5.97;;;32.20;76.60;;;;;;4984073;28;20038;-75
2023/08/20 11:07:49;;;;;;;10.45;5.93;;;32.20;76.90;;;;;;4973594;28;20090;-75
2023/08/20 11:10:18;;;;;;;8.88;6.03;;;32.40;77.60;;;;;;4964861;29;20023;-75
2023/08/20 11:12:46;;;;;;;9.43;5.93;;;32.70;77.20;;;;;;4964887;29;20347;-75
2023/08/20 11:15:12;;;;;;;;;;;33.00;75.90;;;;;;4964662;29;20031;-74
2023/08/20 11:17:42;;;;;;;8.30;6.10;;;33.10;75.40;;;;;;4964594;29;20132;-75
2023/08/20 11:20:11;;;;;;;9.57;6.00;;;33.20;74.90;;;;;;4964120;29;20055;-74
2023/08/20 11:22:37;;;;;;;8.45;5.88;;;33.30;74.50;;;;;;4964618;29;20035;-74
2023/08/20 11:25:04;;;;;;;7.20;5.43;;;33.60;73.50;;;;;;4963957;29;20098;-74
2023/08/20 11:27:30;;;;;;;6.35;5.50;;;34.00;71.20;;;;;;4964368;29;20249;-75
2023/08/20 11:29:58;;;;;;;6.03;5.07;;;34.70;71.10;;;;;;4974199;28;20043;-75
2023/08/20 11:32:24;;;;;;;7.55;4.70;;;35.30;69.50;;;;;;4967932;28;20208;-74
2023/08/20 11:34:50;;;;;;;8.65;4.93;;;36.00;68.10;;;;;;4983580;28;20042;-74
2023/08/20 11:37:22;;;;;;;6.70;4.47;;;37.00;66.70;;;;;;4975094;28;20035;-74
2023/08/20 11:39:49;;;;;;;7.10;4.43;;;38.00;64.90;;;;;;4964434;29;20050;-75
2023/08/20 11:42:15;;;;;;;7.40;4.75;;;38.70;63.30;;;;;;4971501;28;20039;-74
2023/08/20 11:44:46;;;;;;;7.67;4.43;;;39.30;61.60;;;;;;4986144;28;20031;-74
2023/08/20 11:47:18;;;;;;;4.78;3.90;;;39.90;60.60;;;;;;4950625;29;20039;-72
2023/08/20 11:49:44;;;;;;;4.50;3.80;;;40.70;59.20;;;;;;4967792;29;20031;-74
2023/08/20 11:52:12;;;;;;;6.47;3.83;;;41.40;58.50;;;;;;4967812;29;20034;-76
2023/08/20 11:54:38;;;;;;;4.85;3.85;;;41.50;56.90;;;;;;4950865;29;20269;-73
2023/08/20 11:57:05;;;;;;;6.00;4.10;;;41.70;57.20;;;;;;4967534;29;20039;-74
2023/08/20 11:59:31;;;;;;;5.00;3.60;;;42.10;56.20;;;;;;4967669;29;20031;-75
2023/08/20 12:02:01;;;;;;;6.70;3.70;;;42.70;56.00;;;;;;4972371;28;20046;-73
2023/08/20 12:04:30;;;;;;;8.02;3.92;;;43.10;55.10;;;;;;4967889;29;20066;-73
2023/08/20 12:07:09;;;;;;;4.68;3.42;;;43.40;54.30;;;;;;4974259;28;20375;-73
2023/08/20 12:09:35;;;;;;;5.90;3.50;;;43.60;54.00;;;;;;4972395;28;20201;-75
2023/08/20 12:12:02;;;;;;;5.28;3.72;;;43.90;53.60;;;;;;4967054;29;20050;-74
2023/08/20 12:14:28;;;;;;;4.70;3.42;;;44.00;53.60;;;;;;4967296;29;20034;-74
2023/08/20 12:16:55;;;;;;;5.28;3.40;;;44.10;53.30;;;;;;4966743;29;20050;-77
2023/08/20 12:19:21;;;;;;;7.30;3.65;;;44.40;52.70;;;;;;4967590;29;20035;-77
2023/08/20 12:21:47;;;;;;;5.40;3.33;;;44.40;52.00;;;;;;4967345;29;20063;-77
2023/08/20 12:24:13;;;;;;;4.45;3.60;;;44.20;53.00;;;;;;4967055;29;20386;-75
2023/08/20 12:26:39;;;;;;;6.35;3.50;;;44.70;52.10;;;;;;4967518;29;20065;-74
2023/08/20 12:29:05;;;;;;;5.68;3.60;;;45.30;51.10;;;;;;4966699;29;20035;-74
2023/08/20 12:31:32;;;;;;;5.27;3.63;;;45.60;50.80;;;;;;4967542;29;20324;-75
2023/08/20 12:33:58;;;;;;;;;;;45.90;50.60;;;;;;4967493;29;20253;-73
2023/08/20 12:36:23;;;;;;;5.10;3.50;;;46.00;50.00;;;;;;4978962;28;19937;-74
2023/08/20 12:38:49;;;;;;;6.07;3.50;;;46.20;49.70;;;;;;4986448;28;20026;-77
2023/08/20 12:41:15;;;;;;;6.50;2.90;;;45.40;49.90;;;;;;4986080;28;20065;-74
2023/08/20 12:43:41;;;;;;;5.47;3.03;;;45.40;50.20;;;;;;4986168;28;20300;-75
2023/08/20 12:46:06;;;;;;;6.73;3.23;;;45.60;49.60;;;;;;4985764;28;20304;-75
2023/08/20 12:48:32;;;;;;;6.77;3.33;;;46.00;49.50;;;;;;4986155;28;20090;-74
2023/08/20 12:50:58;;;;;;;9.83;3.33;;;45.80;49.50;;;;;;4968748;28;20058;-72
2023/08/20 12:53:24;;;;;;;5.27;3.50;;;45.80;49.70;;;;;;4986143;28;20031;-74
2023/08/20 12:55:50;;;;;;;5.00;3.50;;;46.60;48.50;;;;;;4985716;28;20062;-74
2023/08/20 12:58:16;;;;;;;3.97;2.77;;;46.80;48.60;;;;;;4985790;28;20043;-74
2023/08/20 13:00:41;;;;;;;7.63;3.00;;;46.60;48.70;;;;;;4985518;28;20058;-74
2023/08/20 13:03:07;;;;;;;5.07;3.27;;;46.90;48.80;;;;;;4985386;28;20038;-75
2023/08/20 13:05:33;;;;;;;6.43;3.30;;;46.90;48.40;;;;;;4986134;28;20038;-76
2023/08/20 13:07:59;;;;;;;6.60;3.80;;;46.10;48.30;;;;;;4975779;28;20073;-74
2023/08/20 13:10:25;;;;;;;5.70;3.57;;;46.10;48.90;;;;;;4968498;28;20046;-73
2023/08/20 13:12:53;;;;;;;4.70;3.13;;;46.70;48.60;;;;;;4985760;28;20073;-73
2023/08/20 13:15:21;;;;;;;6.63;3.55;;;47.50;48.80;;;;;;4985224;28;20051;-75
2023/08/20 13:17:48;;;;;;;4.82;2.90;;;47.80;47.70;;;;;;4985706;28;20019;-75
2023/08/20 13:20:15;;;;;;;4.68;3.30;;;47.80;47.20;;;;;;4968405;28;20335;-74
2023/08/20 13:22:41;;;;;;;;;;;47.30;47.00;;;;;;4986365;28;20058;-75
2023/08/20 13:25:07;;;;;;;6.50;3.40;;;47.40;47.20;;;;;;4985161;28;19906;-73
2023/08/20 13:27:39;;;;;;;5.25;3.10;;;47.70;47.00;;;;;;4968697;28;20042;-78
2023/08/20 13:30:05;;;;;;;4.53;3.10;;;47.20;47.00;;;;;;4984975;28;20035;-76
2023/08/20 13:32:37;;;;;;;5.82;2.80;;;46.90;47.10;;;;;;4985678;28;20038;-78
2023/08/20 13:35:09;;;;;;;4.45;3.30;;;47.10;47.30;;;;;;4983729;28;20352;-75
2023/08/20 13:37:35;;;;;;;5.10;3.20;;;47.80;47.10;;;;;;4965905;29;20102;-74
2023/08/20 13:40:01;;;;;;;5.90;3.33;;;48.40;46.20;;;;;;4965320;29;20237;-74
2023/08/20 13:42:26;;;;;;;5.05;3.15;;;49.10;45.80;;;;;;4966190;29;20031;-74
2023/08/20 13:44:52;;;;;;;5.03;3.40;;;49.70;44.90;;;;;;4965952;29;20060;-72
2023/08/20 13:47:18;;;;;;;5.53;3.00;;;49.80;44.50;;;;;;4973551;28;20282;-73
2023/08/20 13:49:43;;;;;;;5.27;3.07;;;49.80;44.80;;;;;;4985009;28;20042;-75
2023/08/20 13:52:10;;;;;;;5.23;2.70;;;50.00;44.10;;;;;;4984542;28;20030;-73
2023/08/20 13:54:36;;;;;;;;;;;50.60;44.60;;;;;;4985426;28;20098;-76
2023/08/20 13:57:03;;;;;;;;;;;51.30;43.70;;;;;;4984974;28;19914;-76
2023/08/20 13:59:32;;;;;;;4.72;3.35;;;51.70;43.30;;;;;;4984629;28;20136;-77
2023/08/20 14:01:58;;;;;;;4.47;3.10;;;52.10;43.60;;;;;;4967949;28;20121;-74
2023/08/20 14:04:24;;;;;;;;;;;51.80;43.50;;;;;;4984915;28;20081;-73
2023/08/20 14:06:50;;;;;;;5.40;3.10;;;51.70;43.70;;;;;;4984066;28;19910;-74
2023/08/20 14:09:18;;;;;;;6.50;3.40;;;51.30;44.30;;;;;;4967164;28;20038;-75
2023/08/20 14:11:44;;;;;;;4.63;2.90;;;51.00;44.00;;;;;;4984423;28;20085;-74
2023/08/20 14:14:09;;;;;;;6.95;3.13;;;50.30;44.60;;;;;;4984502;28;20027;-75
2023/08/20 14:16:35;;;;;;;4.90;3.20;;;50.10;45.10;;;;;;4984701;28;20057;-75
2023/08/20 14:19:00;;;;;;;5.73;4.07;;;50.00;45.20;;;;;;4984171;28;20088;-75
2023/08/20 14:21:26;;;;;;;6.10;3.07;;;50.20;45.50;;;;;;4984881;28;20422;-75
2023/08/20 14:23:52;;;;;;;6.30;3.45;;;50.90;45.20;;;;;;4984661;28;20082;-74
2023/08/20 14:26:18;;;;;;;3.88;3.30;;;50.70;45.30;;;;;;4978671;28;20026;-75
2023/08/20 14:28:44;;;;;;;7.40;3.60;;;50.70;45.10;;;;;;4984762;28;20031;-75
2023/08/20 14:31:10;;;;;;;5.90;3.20;;;50.60;44.80;;;;;;4983909;28;20031;-75
2023/08/20 14:33:36;;;;;;;5.03;3.00;;;50.70;44.60;;;;;;4984275;28;20030;-75
2023/08/20 14:36:02;;;;;;;6.80;3.53;;;50.90;44.50;;;;;;4983667;28;20043;-75
2023/08/20 14:38:28;;;;;;;;;;;51.60;44.00;;;;;;4984525;28;20039;-74
2023/08/20 14:40:58;;;;;;;5.57;3.53;;;51.70;43.90;;;;;;4984199;28;19969;-75
2023/08/20 14:43:24;;;;;;;5.63;3.00;;;50.10;44.50;;;;;;4983800;28;20284;-75
2023/08/20 14:45:50;;;;;;;8.93;3.53;;;48.70;45.60;;;;;;4978979;28;20031;-73
2023/08/20 14:48:15;;;;;;;5.27;3.60;;;47.20;46.90;;;;;;4983400;28;20305;-73
2023/08/20 14:50:41;;;;;;;6.00;3.10;;;47.60;46.50;;;;;;4984060;28;20034;-73
2023/08/20 14:53:07;;;;;;;4.90;3.50;;;48.20;46.10;;;;;;4983721;28;20053;-74
2023/08/20 14:55:33;;;;;;;7.20;3.40;;;47.40;46.40;;;;;;4984594;28;20070;-75
2023/08/20 14:57:59;;;;;;;4.95;3.15;;;45.60;47.70;;;;;;4984318;28;20041;-75
2023/08/20 15:00:24;;;;;;;7.07;3.58;;;44.30;49.70;;;;;;4983274;28;20046;-73
2023/08/20 15:02:50;;;;;;;7.10;3.58;;;43.90;50.00;;;;;;4984047;28;20331;-75
2023/08/20 15:05:19;;;;;;;4.82;3.30;;;44.20;50.20;;;;;;4983348;28;20034;-75
2023/08/20 15:07:45;;;;;;;6.88;4.05;;;43.40;50.30;;;;;;4976124;28;20027;-75
2023/08/20 15:10:11;;;;;;;5.88;4.18;;;42.40;51.90;;;;;;4983348;28;20050;-76
2023/08/20 15:12:37;;;;;;;6.18;3.78;;;41.60;53.10;;;;;;4966704;28;20034;-75
2023/08/20 15:15:08;;;;;;;5.63;4.03;;;41.00;53.10;;;;;;4983771;28;20033;-74
2023/08/20 15:17:34;;;;;;;7.15;3.53;;;41.00;53.40;;;;;;4984080;28;20034;-75
2023/08/20 15:20:00;;;;;;;6.15;3.65;;;41.10;52.70;;;;;;4987143;28;20059;-74
2023/08/20 15:22:26;;;;;;;5.82;3.58;;;41.70;52.20;;;;;;4987711;28;20035;-75
2023/08/20 15:24:52;;;;;;;5.63;3.15;;;43.30;51.20;;;;;;4987941;28;20035;-75
2023/08/20 15:27:18;;;;;;;6.05;3.40;;;45.00;49.00;;;;;;4981060;28;20341;-74
2023/08/20 15:29:44;;;;;;;4.35;3.10;;;46.40;47.20;;;;;;4968258;29;20309;-74
2023/08/20 15:32:11;;;;;;;7.18;3.38;;;46.40;47.50;;;;;;4966773;29;20391;-74
2023/08/20 15:34:36;;;;;;;5.22;2.63;;;46.20;47.30;;;;;;4968477;29;20098;-75
2023/08/20 15:37:02;;;;;;;7.50;2.78;;;45.80;47.60;;;;;;4967781;29;20228;-75
2023/08/20 15:39:31;;;;;;;5.00;2.97;;;45.90;47.30;;;;;;4967672;29;20113;-75
2023/08/20 15:41:57;;;;;;;5.13;3.20;;;44.90;47.10;;;;;;4968286;29;20035;-75
2023/08/20 15:44:23;;;;;;;7.18;3.10;;;44.50;48.00;;;;;;4967171;29;20038;-76
2023/08/20 15:46:49;;;;;;;7.07;2.50;;;45.60;47.40;;;;;;4968366;29;20035;-75
2023/08/20 15:49:14;;;;;;;6.40;2.70;;;46.50;46.60;;;;;;4977919;28;20300;-74
2023/08/20 15:51:40;;;;;;;5.63;2.80;;;46.40;46.70;;;;;;4987261;28;20300;-75
2023/08/20 15:54:06;;;;;;;4.43;2.50;;;46.20;46.80;;;;;;4987691;28;20031;-75
2023/08/20 15:56:32;;;;;;;5.43;2.83;;;46.00;47.10;;;;;;4987043;28;20320;-75
2023/08/20 15:58:57;;;;;;;3.92;2.70;;;45.20;47.60;;;;;;4986911;28;20042;-74
2023/08/20 16:01:25;;;;;;;5.28;2.65;;;44.40;48.10;;;;;;4961460;29;20321;-75
2023/08/20 16:03:50;;;;;;;;;;;45.70;47.40;;;;;;4982345;28;20066;-74
2023/08/20 16:06:16;;;;;;;3.27;2.70;;;46.50;46.40;;;;;;4985140;28;19945;-75
2023/08/20 16:08:42;;;;;;;4.88;2.80;;;46.90;46.30;;;;;;4979357;28;20367;-74
2023/08/20 16:11:08;;;;;;;4.05;2.70;;;47.30;45.50;;;;;;4986441;28;20035;-76
2023/08/20 16:13:33;;;;;;;5.78;2.72;;;48.10;45.30;;;;;;4986974;28;20035;-75
2023/08/20 16:15:59;;;;;;;6.07;3.70;;;48.40;44.70;;;;;;4986764;28;20321;-75
2023/08/20 16:18:25;;;;;;;5.88;2.65;;;48.60;44.70;;;;;;4985129;28;20220;-74
2023/08/20 16:20:50;;;;;;;6.00;2.60;;;48.40;45.20;;;;;;4967459;29;20027;-74
2023/08/20 16:23:16;;;;;;;4.17;2.50;;;48.60;44.90;;;;;;4967285;29;20313;-74
2023/08/20 16:25:42;;;;;;;5.53;2.40;;;48.50;45.00;;;;;;4967320;29;20046;-74
2023/08/20 16:28:11;;;;;;;7.75;2.70;;;48.60;44.60;;;;;;4967080;29;20078;-74
2023/08/20 16:30:38;;;;;;;4.70;3.13;;;48.40;44.60;;;;;;4966590;28;20061;-75
2023/08/20 16:33:11;;;;;;;5.80;3.03;;;48.70;44.60;;;;;;4967446;29;20138;-74
2023/08/20 16:35:36;;;;;;;6.85;2.80;;;48.90;44.00;;;;;;4967377;29;20047;-74
2023/08/20 16:38:02;;;;;;;6.23;2.37;;;49.30;44.00;;;;;;4967291;29;20035;-74
2023/08/20 16:40:29;;;;;;;4.77;2.60;;;49.00;44.10;;;;;;4966659;29;20421;-76
2023/08/20 16:42:55;;;;;;;6.60;3.10;;;49.50;43.70;;;;;;4966793;29;20023;-74
2023/08/20 16:45:21;;;;;;;6.73;3.50;;;49.20;43.40;;;;;;4966411;29;20069;-75
2023/08/20 16:47:47;;;;;;;5.57;2.87;;;49.40;43.50;;;;;;4966793;29;20217;-76
2023/08/20 16:50:13;;;;;;;6.38;2.90;;;48.80;43.40;;;;;;4966574;29;20035;-76
2023/08/20 16:52:39;;;;;;;4.22;2.40;;;47.60;44.40;;;;;;4966950;29;20041;-75
2023/08/20 16:55:05;;;;;;;6.15;3.00;;;46.20;45.40;;;;;;4966806;29;20214;-75
2023/08/20 16:57:30;;;;;;;6.18;3.30;;;44.70;47.80;;;;;;4966216;29;20039;-72
2023/08/20 16:59:56;;;;;;;7.20;4.38;;;43.50;48.10;;;;;;4966298;28;20318;-74
2023/08/20 17:02:22;;;;;;;6.97;3.95;;;42.00;49.40;;;;;;4966253;29;20321;-75
2023/08/20 17:04:49;;;;;;;6.25;3.17;;;41.10;50.90;;;;;;4966689;29;20042;-74
2023/08/20 17:07:15;;;;;;;7.10;3.20;;;40.50;51.60;;;;;;4966484;28;20030;-74
2023/08/20 17:09:40;;;;;;;4.70;2.83;;;39.80;52.80;;;;;;4968319;28;20053;-74
2023/08/20 17:12:06;;;;;;;5.18;3.03;;;39.30;53.70;;;;;;4985602;28;20050;-74
2023/08/20 17:14:32;;;;;;;6.53;3.90;;;38.80;54.60;;;;;;4967745;28;20272;-74
2023/08/20 17:16:58;;;;;;;8.15;3.30;;;38.60;54.80;;;;;;4985501;28;20038;-74
2023/08/20 17:19:23;;;;;;;5.45;3.45;;;38.10;55.60;;;;;;4985370;28;20106;-75
2023/08/20 17:21:51;;;;;;;5.35;3.85;;;37.80;56.00;;;;;;4980160;28;20039;-75
2023/08/20 17:24:17;;;;;;;5.47;3.50;;;37.60;56.60;;;;;;4985351;28;20073;-75
2023/08/20 17:26:43;;;;;;;7.63;3.17;;;37.20;56.80;;;;;;4985671;28;20232;-75
2023/08/20 17:29:08;;;;;;;7.03;3.55;;;36.90;57.50;;;;;;4985710;28;20185;-74
2023/08/20 17:31:37;;;;;;;4.97;3.45;;;36.70;57.60;;;;;;4984863;28;20054;-74
2023/08/20 17:34:07;;;;;;;6.80;3.50;;;36.50;57.80;;;;;;4985130;28;20316;-75
2023/08/20 17:36:33;;;;;;;5.60;3.35;;;36.20;58.50;;;;;;4984770;28;20046;-74
2023/08/20 17:39:00;;;;;;;4.93;3.35;;;35.80;59.00;;;;;;4984980;28;20037;-75
2023/08/20 17:41:26;;;;;;;6.85;4.28;;;35.60;59.50;;;;;;4978412;28;20347;-74
2023/08/20 17:43:52;;;;;;;10.38;3.60;;;35.40;59.90;;;;;;4985286;28;20031;-73
2023/08/20 17:46:17;;;;;;;6.55;3.80;;;35.40;60.50;;;;;;4984434;28;20094;-74
2023/08/20 17:48:43;;;;;;;5.18;3.17;;;35.40;60.70;;;;;;4984884;28;20309;-73
2023/08/20 17:51:09;;;;;;;6.28;4.45;;;35.40;60.90;;;;;;4985333;28;20022;-74
2023/08/20 17:53:34;;;;;;;8.65;3.85;;;35.40;60.70;;;;;;4984750;28;20050;-75
2023/08/20 17:56:00;;;;;;;5.22;3.63;;;35.40;61.40;;;;;;4984830;28;20337;-76
2023/08/20 17:58:26;;;;;;;6.47;4.13;;;35.30;60.90;;;;;;4984273;28;20106;-76
2023/08/20 18:00:52;;;;;;;7.20;4.05;;;35.10;61.20;;;;;;4984570;28;20218;-74
2023/08/20 18:03:18;;;;;;;8.57;3.65;;;34.90;61.70;;;;;;4973449;28;20038;-74
2023/08/20 18:05:45;;;;;;;6.30;3.67;;;34.80;62.10;;;;;;4965297;29;20086;-74
2023/08/20 18:08:11;;;;;;;8.63;4.10;;;34.60;62.60;;;;;;4940106;28;20022;-75
2023/08/20 18:10:37;;;;;;;7.93;4.43;;;34.60;62.90;;;;;;4984405;28;20364;-74
2023/08/20 18:13:03;;;;;;;5.40;3.63;;;34.40;63.40;;;;;;4984359;28;20035;-76
2023/08/20 18:15:30;;;;;;;6.75;4.22;;;34.40;63.80;;;;;;4983955;28;20065;-74
2023/08/20 18:17:55;;;;;;;6.47;3.97;;;34.30;63.80;;;;;;4984357;28;20035;-74
2023/08/20 18:20:22;;;;;;;7.28;4.25;;;34.10;64.20;;;;;;4984312;28;20041;-74
2023/08/20 18:22:48;;;;;;;6.28;4.53;;;33.90;64.70;;;;;;4982860;28;20101;-74
2023/08/20 18:25:13;;;;;;;6.05;4.38;;;33.90;65.30;;;;;;4965924;28;20347;-74
2023/08/20 18:27:42;;;;;;;9.48;5.03;;;33.70;65.20;;;;;;4965086;29;20035;-76
2023/08/20 18:30:09;;;;;;;5.15;3.80;;;33.60;65.80;;;;;;4948151;29;20590;-74
2023/08/20 18:32:35;;;;;;;7.40;3.80;;;33.40;66.00;;;;;;4964641;29;20043;-76
2023/08/20 18:35:02;;;;;;;7.57;3.88;;;33.30;66.50;;;;;;4948101;29;20031;-74
2023/08/20 18:37:28;;;;;;;10.98;5.10;;;33.30;66.50;;;;;;4964533;29;20043;-75
2023/08/20 18:39:53;;;;;;;7.55;4.82;;;33.20;66.70;;;;;;4964758;29;20039;-75
2023/08/20 18:42:19;;;;;;;7.65;4.30;;;33.10;67.70;;;;;;4964239;29;20070;-76
2023/08/20 18:44:45;;;;;;;8.07;5.13;;;32.90;67.90;;;;;;4973647;28;20034;-74
2023/08/20 18:47:11;;;;;;;7.57;4.90;;;32.70;68.20;;;;;;4984040;28;20256;-74
2023/08/20 18:49:36;;;;;;;6.93;4.82;;;32.70;68.70;;;;;;4983820;28;20058;-75
2023/08/20 18:52:05;;;;;;;5.95;4.60;;;32.50;68.90;;;;;;4984209;28;20039;-73
2023/08/20 18:54:31;;;;;;;6.95;4.70;;;32.40;69.30;;;;;;4983595;28;20085;-73
2023/08/20 18:56:58;;;;;;;6.55;4.53;;;32.30;69.50;;;;;;4984243;28;20035;-74
2023/08/20 18:59:24;;;;;;;5.00;4.10;;;32.20;69.50;;;;;;4983733;28;20425;-76
2023/08/20 19:01:50;;;;;;;7.18;5.90;;;32.20;69.60;;;;;;4984239;28;20047;-73
2023/08/20 19:04:15;;;;;;;7.55;4.88;;;32.10;69.70;;;;;;4979470;28;20317;-74
2023/08/20 19:06:41;;;;;;;9.02;4.63;;;32.10;70.00;;;;;;4982619;28;20097;-75
2023/08/20 19:09:07;;;;;;;8.38;5.18;;;32.00;70.10;;;;;;4968646;28;20019;-75
2023/08/20 19:11:33;;;;;;;8.07;5.30;;;31.80;70.70;;;;;;4964086;29;20030;-75
2023/08/20 19:13:59;;;;;;;7.80;5.47;;;31.70;71.20;;;;;;4964540;29;20023;-76
2023/08/20 19:16:25;;;;;;;9.07;5.78;;;31.40;71.50;;;;;;4964163;29;20340;-74
2023/08/20 19:18:51;;;;;;;7.05;4.65;;;31.20;72.00;;;;;;4964487;29;20220;-76
2023/08/20 19:21:17;;;;;;;8.88;5.90;;;31.10;71.80;;;;;;4964419;29;20039;-74
2023/08/20 19:23:45;;;;;;;8.00;5.13;;;31.00;72.10;;;;;;4963889;29;20039;-75
2023/08/20 19:26:11;;;;;;;7.28;5.70;;;31.00;72.00;;;;;;4973596;28;20047;-75
2023/08/20 19:28:37;;;;;;;8.32;4.90;;;31.00;72.00;;;;;;4966273;28;20043;-73
2023/08/20 19:31:03;;;;;;;6.60;4.18;;;31.00;72.00;;;;;;4983395;28;20031;-73
2023/08/20 19:33:32;;;;;;;6.05;4.20;;;31.00;72.30;;;;;;4983499;28;20043;-74
2023/08/20 19:36:03;;;;;;;7.05;4.78;;;31.00;72.70;;;;;;4982849;28;20093;-75
2023/08/20 19:38:30;;;;;;;6.72;4.40;;;30.90;72.90;;;;;;4976381;28;20047;-74
2023/08/20 19:40:55;;;;;;;7.60;5.40;;;30.70;73.60;;;;;;4970155;28;20022;-74
2023/08/20 19:43:24;;;;;;;6.68;5.30;;;30.60;74.40;;;;;;4983333;28;20093;-73
2023/08/20 19:45:52;;;;;;;7.90;5.30;;;30.50;74.90;;;;;;4975687;28;20023;-73
2023/08/20 19:48:18;;;;;;;6.35;5.10;;;30.50;74.90;;;;;;4964265;29;20042;-73
2023/08/20 19:50:44;;;;;;;11.30;8.25;;;30.40;75.00;;;;;;4963366;29;20027;-73
2023/08/20 19:53:10;;;;;;;9.38;6.15;;;30.30;75.40;;;;;;4965407;28;20027;-73
2023/08/20 19:55:35;;;;;;;8.77;6.45;;;30.30;75.90;;;;;;4983094;28;20073;-74
2023/08/20 19:58:01;;;;;;;8.05;5.78;;;30.10;76.40;;;;;;4980663;28;20046;-73
2023/08/20 20:00:27;;;;;;;8.00;5.80;;;30.00;75.90;;;;;;4983115;28;20047;-73
2023/08/20 20:02:53;;;;;;;7.47;5.20;;;30.00;77.00;;;;;;4983475;28;20193;-73
2023/08/20 20:05:21;;;;;;;7.90;5.13;;;29.80;77.10;;;;;;4985535;28;20058;-74
2023/08/20 20:07:47;;;;;;;8.52;4.90;;;29.70;77.00;;;;;;4976595;28;20019;-73
2023/08/20 20:10:14;;;;;;;9.30;5.50;;;29.60;76.40;;;;;;4969003;28;20328;-73
2023/08/20 20:12:40;;;;;;;8.55;5.50;;;29.60;77.70;;;;;;4986541;28;20057;-73
2023/08/20 20:15:08;;;;;;;11.25;5.78;;;29.50;78.10;;;;;;4986856;28;20033;-73
2023/08/20 20:17:34;;;;;;;8.97;6.17;;;29.40;78.90;;;;;;4969409;28;20053;-74
2023/08/20 20:20:00;;;;;;;7.35;5.28;;;29.30;79.50;;;;;;4986810;28;20047;-73
2023/08/20 20:22:28;;;;;;;7.97;5.60;;;29.20;78.30;;;;;;4986528;28;20273;-74
2023/08/20 20:24:56;;;;;;;7.50;5.13;;;29.20;78.60;;;;;;4986430;28;20038;-72
2023/08/20 20:27:22;;;;;;;8.00;5.40;;;29.20;78.20;;;;;;4985169;28;20134;-74
2023/08/20 20:29:48;;;;;;;8.23;5.65;;;29.30;78.10;;;;;;4967426;29;20037;-72
2023/08/20 20:32:14;;;;;;;7.25;5.18;;;29.20;79.20;;;;;;4967165;29;20035;-73
2023/08/20 20:34:40;;;;;;;10.25;6.20;;;29.10;79.80;;;;;;4966702;29;20141;-73
2023/08/20 20:37:06;;;;;;;7.82;5.82;;;29.10;80.40;;;;;;4966730;29;20035;-72
2023/08/20 20:39:32;;;;;;;7.38;5.63;;;29.00;79.20;;;;;;4966761;29;20257;-73
2023/08/20 20:41:57;;;;;;;7.13;5.15;;;29.10;79.00;;;;;;4967177;29;20325;-73
2023/08/20 20:44:23;;;;;;;7.63;5.63;;;29.10;79.50;;;;;;4967142;29;20225;-73
2023/08/20 20:46:49;;;;;;;8.82;6.35;;;29.10;79.40;;;;;;4967020;29;20121;-72
2023/08/20 20:49:15;;;;;;;8.93;5.68;;;29.10;80.00;;;;;;4970217;28;20039;-72
2023/08/20 20:51:41;;;;;;;7.22;5.35;;;29.00;79.40;;;;;;4966537;29;20371;-73
2023/08/20 20:54:07;;;;;;;7.68;5.65;;;29.00;79.30;;;;;;4966721;29;20305;-73
2023/08/20 20:56:32;;;;;;;11.80;10.05;;;29.00;79.40;;;;;;4965967;29;20078;-73
2023/08/20 20:58:58;;;;;;;9.77;6.90;;;28.90;80.40;;;;;;4949569;29;20034;-74
2023/08/20 21:01:24;;;;;;;6.70;4.85;;;28.80;80.30;;;;;;4966389;29;20333;-73
2023/08/20 21:03:51;;;;;;;11.18;9.02;;;28.70;80.20;;;;;;4971991;28;20054;-73
2023/08/20 21:06:16;;;;;;;7.47;5.28;;;28.70;81.60;;;;;;4985608;28;20094;-73
2023/08/20 21:08:42;;;;;;;9.05;5.88;;;28.60;81.30;;;;;;4981424;28;20038;-73
2023/08/20 21:11:08;;;;;;;10.18;7.18;;;28.50;81.70;;;;;;4984789;28;20030;-74
2023/08/20 21:13:33;;;;;;;7.38;6.18;;;28.40;82.70;;;;;;4985467;28;20030;-74
2023/08/20 21:15:59;;;;;;;6.20;5.45;;;28.30;83.60;;;;;;4984489;28;20042;-74
2023/08/20 21:18:25;;;;;;;7.57;5.65;;;28.20;83.00;;;;;;4986256;28;20023;-74
2023/08/20 21:20:51;;;;;;;11.35;6.05;;;28.20;83.30;;;;;;4985935;28;20331;-74
2023/08/20 21:23:17;;;;;;;9.95;6.47;;;28.10;84.00;;;;;;4985784;28;20082;-73
2023/08/20 21:25:43;;;;;;;6.80;5.45;;;28.00;84.50;;;;;;4985499;28;20034;-73
2023/08/20 21:28:08;;;;;;;9.30;6.03;;;27.90;84.40;;;;;;4985719;28;20030;-73
2023/08/20 21:30:34;;;;;;;7.35;5.40;;;27.80;84.80;;;;;;4979944;28;20031;-74
2023/08/20 21:33:00;;;;;;;7.82;5.32;;;27.70;85.20;;;;;;4985251;28;20031;-74
2023/08/20 21:35:26;;;;;;;9.25;6.13;;;27.60;84.90;;;;;;4985233;28;20042;-73
2023/08/20 21:37:52;;;;;;;10.18;6.85;;;27.60;85.50;;;;;;4985216;28;20045;-74
2023/08/20 21:40:17;;;;;;;9.75;6.78;;;27.60;85.20;;;;;;4985763;28;20290;-77
2023/08/20 21:42:43;;;;;;;7.93;5.95;;;27.50;86.40;;;;;;4984835;28;20097;-75
2023/08/20 21:45:09;;;;;;;9.38;5.70;;;27.50;86.10;;;;;;4977110;28;20031;-75
2023/08/20 21:47:46;;;;;;;8.05;5.88;;;27.40;86.70;;;;;;4965617;29;20038;-73
2023/08/20 21:50:15;;;;;;;8.50;6.32;;;27.40;86.80;;;;;;4966381;28;20098;-73
2023/08/20 21:52:45;;;;;;;8.57;6.30;;;27.40;87.20;;;;;;4966581;28;20035;-75
2023/08/20 21:55:14;;;;;;;10.48;6.20;;;27.40;85.30;;;;;;4985263;28;20274;-75
2023/08/20 21:57:40;;;;;;;8.00;5.53;;;27.30;87.10;;;;;;4984772;28;20034;-75
2023/08/20 22:00:14;;;;;;;8.15;6.45;;;27.30;87.40;;;;;;4984733;28;20061;-74
2023/08/20 22:02:43;;;;;;;7.75;5.65;;;27.20;87.30;;;;;;4969549;28;20035;-75
2023/08/20 22:05:20;;;;;;;7.25;5.82;;;27.30;87.80;;;;;;4948439;29;20039;-75
2023/08/20 22:07:48;;;;;;;8.38;5.47;;;27.20;87.50;;;;;;4966886;28;20057;-74
2023/08/20 22:10:17;;;;;;;8.80;6.32;;;27.20;87.20;;;;;;4984608;28;20035;-74
2023/08/20 22:12:43;;;;;;;8.43;6.00;;;27.20;86.60;;;;;;4979068;28;20065;-74
2023/08/20 22:15:10;;;;;;;10.20;6.60;;;27.20;88.50;;;;;;4984636;28;20073;-73